sensor_id;sensor_type;location;lat;lon;timestamp;P1;P2;P0
50956;PMS5003;55361;50.876;20.634;2022-07-29T00:00:23;3;3;3
50956;PMS5003;55361;50.876;20.634;2022-07-29T00:07:16;4;4;3
50956;PMS5003;55361;50.876;20.634;2022-07-29T00:14:14;4;4;3
50956;PMS5003;55361;50.876;20.634;2022-07-29T00:21:16;4;4;3
50956;PMS5003;55361;50.876;20.634;2022-07-29T00:28:02;4;4;3
50956;PMS5003;55361;50.876;20.634;2022-07-29T00:42:02;4;4;2
50956;PMS5003;55361;50.876;20.634;2022-07-29T00:49:02;4;4;2
50956;PMS5003;55361;50.876;20.634;2022-07-29T00:56:16;4;4;2
50956;PMS5003;55361;50.876;20.634;2022-07-29T01:00:30;4;4;2
50956;PMS5003;55361;50.876;20.634;2022-07-29T01:07:18;4;3;2
50956;PMS5003;55361;50.876;20.634;2022-07-29T01:14:02;4;3;2
50956;PMS5003;55361;50.876;20.634;2022-07-29T01:21:53;4;3;2
50956;PMS5003;55361;50.876;20.634;2022-07-29T01:35:25;4;3;3
50956;PMS5003;55361;50.876;20.634;2022-07-29T01:42:12;4;3;3
50956;PMS5003;55361;50.876;20.634;2022-07-29T01:49:05;4;3;3
50956;PMS5003;55361;50.876;20.634;2022-07-29T01:56:39;4;3;3
50956;PMS5003;55361;50.876;20.634;2022-07-29T02:00:04;4;3;3
50956;PMS5003;55361;50.876;20.634;2022-07-29T02:07:28;5;5;3
50956;PMS5003;55361;50.876;20.634;2022-07-29T02:14:02;5;5;3
50956;PMS5003;55361;50.876;20.634;2022-07-29T02:21:03;5;5;3
50956;PMS5003;55361;50.876;20.634;2022-07-29T02:28:14;5;5;3
50956;PMS5003;55361;50.876;20.634;2022-07-29T02:35:04;4;4;3
50956;PMS5003;55361;50.876;20.634;2022-07-29T02:42:41;4;4;3
50956;PMS5003;55361;50.876;20.634;2022-07-29T02:50:00;4;4;3
50956;PMS5003;55361;50.876;20.634;2022-07-29T02:56:04;4;4;3
50956;PMS5003;55361;50.876;20.634;2022-07-29T03:00:07;4;4;3
50956;PMS5003;55361;50.876;20.634;2022-07-29T03:07:06;4;4;4
50956;PMS5003;55361;50.876;20.634;2022-07-29T03:14:17;4;4;4
50956;PMS5003;55361;50.876;20.634;2022-07-29T03:21:20;4;4;4
50956;PMS5003;55361;50.876;20.634;2022-07-29T03:28:17;4;4;4
50956;PMS5003;55361;50.876;20.634;2022-07-29T03:35:03;6;5;5
50956;PMS5003;55361;50.876;20.634;2022-07-29T03:42:32;6;5;5
50956;PMS5003;55361;50.876;20.634;2022-07-29T03:49:03;6;5;5
50956;PMS5003;55361;50.876;20.634;2022-07-29T03:56:02;6;5;5
50956;PMS5003;55361;50.876;20.634;2022-07-29T04:00:10;6;5;5
50956;PMS5003;55361;50.876;20.634;2022-07-29T04:07:04;4;4;2
50956;PMS5003;55361;50.876;20.634;2022-07-29T04:14:01;4;4;2
50956;PMS5003;55361;50.876;20.634;2022-07-29T04:21:27;4;4;2
50956;PMS5003;55361;50.876;20.634;2022-07-29T04:28:15;4;4;2
50956;PMS5003;55361;50.876;20.634;2022-07-29T04:35:10;3;3;2
50956;PMS5003;55361;50.876;20.634;2022-07-29T04:42:05;3;3;2
50956;PMS5003;55361;50.876;20.634;2022-07-29T04:49:05;3;3;2
50956;PMS5003;55361;50.876;20.634;2022-07-29T04:56:19;3;3;2
50956;PMS5003;55361;50.876;20.634;2022-07-29T05:00:11;3;3;2
50956;PMS5003;55361;50.876;20.634;2022-07-29T05:07:02;6;5;4
50956;PMS5003;55361;50.876;20.634;2022-07-29T05:14:02;6;5;4
50956;PMS5003;55361;50.876;20.634;2022-07-29T05:21:02;6;5;4
50956;PMS5003;55361;50.876;20.634;2022-07-29T05:28:16;6;5;4
50956;PMS5003;55361;50.876;20.634;2022-07-29T05:35:09;5;5;3
50956;PMS5003;55361;50.876;20.634;2022-07-29T05:42:08;5;5;3
50956;PMS5003;55361;50.876;20.634;2022-07-29T05:49:21;5;5;3
50956;PMS5003;55361;50.876;20.634;2022-07-29T05:56:13;5;5;3
50956;PMS5003;55361;50.876;20.634;2022-07-29T06:00:23;5;5;3
50956;PMS5003;55361;50.876;20.634;2022-07-29T06:14:05;4;4;3
50956;PMS5003;55361;50.876;20.634;2022-07-29T06:21:11;4;4;3
50956;PMS5003;55361;50.876;20.634;2022-07-29T06:28:16;4;4;3
50956;PMS5003;55361;50.876;20.634;2022-07-29T06:42:06;4;3;2
50956;PMS5003;55361;50.876;20.634;2022-07-29T06:49:01;4;3;2
50956;PMS5003;55361;50.876;20.634;2022-07-29T06:56:08;4;3;2
50956;PMS5003;55361;50.876;20.634;2022-07-29T07:00:01;4;3;2
50956;PMS5003;55361;50.876;20.634;2022-07-29T07:14:13;3;3;2
50956;PMS5003;55361;50.876;20.634;2022-07-29T07:21:05;3;3;2
50956;PMS5003;55361;50.876;20.634;2022-07-29T07:28:03;3;3;2
50956;PMS5003;55361;50.876;20.634;2022-07-29T07:42:05;4;3;2
50956;PMS5003;55361;50.876;20.634;2022-07-29T07:49:21;4;3;2
50956;PMS5003;55361;50.876;20.634;2022-07-29T07:56:09;4;3;2
50956;PMS5003;55361;50.876;20.634;2022-07-29T08:00:03;4;3;2
50956;PMS5003;55361;50.876;20.634;2022-07-29T08:14:04;3;2;1
50956;PMS5003;55361;50.876;20.634;2022-07-29T08:21:03;3;2;1
50956;PMS5003;55361;50.876;20.634;2022-07-29T08:28:08;3;2;1
50956;PMS5003;55361;50.876;20.634;2022-07-29T08:35:14;3;2;1
50956;PMS5003;55361;50.876;20.634;2022-07-29T08:42:20;3;3;2
50956;PMS5003;55361;50.876;20.634;2022-07-29T08:49:03;3;3;2
50956;PMS5003;55361;50.876;20.634;2022-07-29T08:56:06;3;3;2
50956;PMS5003;55361;50.876;20.634;2022-07-29T09:00:11;3;3;2
50956;PMS5003;55361;50.876;20.634;2022-07-29T09:14:04;5;4;3
50956;PMS5003;55361;50.876;20.634;2022-07-29T09:28:29;5;4;3
50956;PMS5003;55361;50.876;20.634;2022-07-29T09:35:31;5;4;3
50956;PMS5003;55361;50.876;20.634;2022-07-29T09:42:03;3;3;2
50956;PMS5003;55361;50.876;20.634;2022-07-29T09:49:20;3;3;2
50956;PMS5003;55361;50.876;20.634;2022-07-29T09:56:08;3;3;2
50956;PMS5003;55361;50.876;20.634;2022-07-29T10:00:20;3;3;2
50956;PMS5003;55361;50.876;20.634;2022-07-29T10:14:18;4;4;3
50956;PMS5003;55361;50.876;20.634;2022-07-29T10:21:18;4;4;3
50956;PMS5003;55361;50.876;20.634;2022-07-29T10:28:18;4;4;3
50956;PMS5003;55361;50.876;20.634;2022-07-29T10:35:12;4;4;3
50956;PMS5003;55361;50.876;20.634;2022-07-29T10:42:32;5;5;4
50956;PMS5003;55361;50.876;20.634;2022-07-29T10:49:21;5;5;4
50956;PMS5003;55361;50.876;20.634;2022-07-29T10:56:02;5;5;4
50956;PMS5003;55361;50.876;20.634;2022-07-29T11:00:33;5;5;4
50956;PMS5003;55361;50.876;20.634;2022-07-29T11:07:30;5;5;4
50956;PMS5003;55361;50.876;20.634;2022-07-29T11:14:04;6;6;5
50956;PMS5003;55361;50.876;20.634;2022-07-29T11:21:35;6;6;5
50956;PMS5003;55361;50.876;20.634;2022-07-29T11:28:35;6;6;5
50956;PMS5003;55361;50.876;20.634;2022-07-29T11:35:34;6;6;5
50956;PMS5003;55361;50.876;20.634;2022-07-29T11:42:50;6;6;5
50956;PMS5003;55361;50.876;20.634;2022-07-29T11:49:20;6;6;5
50956;PMS5003;55361;50.876;20.634;2022-07-29T11:56:04;6;6;5
50956;PMS5003;55361;50.876;20.634;2022-07-29T12:00:39;6;6;5
50956;PMS5003;55361;50.876;20.634;2022-07-29T12:07:02;6;6;5
50956;PMS5003;55361;50.876;20.634;2022-07-29T12:14:04;10;8;6
50956;PMS5003;55361;50.876;20.634;2022-07-29T12:21:02;10;8;6
50956;PMS5003;55361;50.876;20.634;2022-07-29T12:28:23;10;8;6
50956;PMS5003;55361;50.876;20.634;2022-07-29T12:35:32;10;8;6
50956;PMS5003;55361;50.876;20.634;2022-07-29T12:42:14;7;7;5
50956;PMS5003;55361;50.876;20.634;2022-07-29T12:49:05;7;7;5
50956;PMS5003;55361;50.876;20.634;2022-07-29T12:56:15;7;7;5
50956;PMS5003;55361;50.876;20.634;2022-07-29T13:07:14;7;7;5
50956;PMS5003;55361;50.876;20.634;2022-07-29T13:14:35;9;8;6
50956;PMS5003;55361;50.876;20.634;2022-07-29T13:21:17;9;8;6
50956;PMS5003;55361;50.876;20.634;2022-07-29T13:28:05;9;8;6
50956;PMS5003;55361;50.876;20.634;2022-07-29T13:35:11;9;8;6
50956;PMS5003;55361;50.876;20.634;2022-07-29T13:49:18;8;8;5
50956;PMS5003;55361;50.876;20.634;2022-07-29T13:56:05;8;8;5
50956;PMS5003;55361;50.876;20.634;2022-07-29T14:00:05;8;8;5
50956;PMS5003;55361;50.876;20.634;2022-07-29T14:07:16;8;8;5
50956;PMS5003;55361;50.876;20.634;2022-07-29T14:21:02;7;6;4
50956;PMS5003;55361;50.876;20.634;2022-07-29T14:28:04;7;6;4
50956;PMS5003;55361;50.876;20.634;2022-07-29T14:35:04;7;6;4
50956;PMS5003;55361;50.876;20.634;2022-07-29T14:49:18;9;9;7
50956;PMS5003;55361;50.876;20.634;2022-07-29T14:56:03;9;9;7
50956;PMS5003;55361;50.876;20.634;2022-07-29T15:00:00;9;9;7
50956;PMS5003;55361;50.876;20.634;2022-07-29T15:07:03;9;9;7
50956;PMS5003;55361;50.876;20.634;2022-07-29T15:21:18;8;8;7
50956;PMS5003;55361;50.876;20.634;2022-07-29T15:28:04;8;8;7
50956;PMS5003;55361;50.876;20.634;2022-07-29T15:35:15;8;8;7
50956;PMS5003;55361;50.876;20.634;2022-07-29T15:49:22;8;7;5
50956;PMS5003;55361;50.876;20.634;2022-07-29T15:56:02;8;7;5
50956;PMS5003;55361;50.876;20.634;2022-07-29T16:00:10;8;7;5
50956;PMS5003;55361;50.876;20.634;2022-07-29T16:07:02;8;7;5
50956;PMS5003;55361;50.876;20.634;2022-07-29T16:21:02;5;5;4
50956;PMS5003;55361;50.876;20.634;2022-07-29T16:28:05;5;5;4
50956;PMS5003;55361;50.876;20.634;2022-07-29T16:35:06;5;5;4
50956;PMS5003;55361;50.876;20.634;2022-07-29T16:49:04;6;6;5
50956;PMS5003;55361;50.876;20.634;2022-07-29T16:56:02;6;6;5
50956;PMS5003;55361;50.876;20.634;2022-07-29T17:00:03;6;6;5
50956;PMS5003;55361;50.876;20.634;2022-07-29T17:07:02;6;6;5
50956;PMS5003;55361;50.876;20.634;2022-07-29T17:21:06;7;7;6
50956;PMS5003;55361;50.876;20.634;2022-07-29T17:28:14;7;7;6
50956;PMS5003;55361;50.876;20.634;2022-07-29T17:35:03;7;7;6
50956;PMS5003;55361;50.876;20.634;2022-07-29T17:49:21;8;7;6
50956;PMS5003;55361;50.876;20.634;2022-07-29T17:56:19;8;7;6
50956;PMS5003;55361;50.876;20.634;2022-07-29T18:00:17;8;7;6
50956;PMS5003;55361;50.876;20.634;2022-07-29T18:07:06;8;7;6
50956;PMS5003;55361;50.876;20.634;2022-07-29T18:21:05;6;6;5
50956;PMS5003;55361;50.876;20.634;2022-07-29T18:28:17;6;6;5
50956;PMS5003;55361;50.876;20.634;2022-07-29T18:35:21;6;6;5
50956;PMS5003;55361;50.876;20.634;2022-07-29T18:42:17;6;6;5
50956;PMS5003;55361;50.876;20.634;2022-07-29T18:49:17;8;7;6
50956;PMS5003;55361;50.876;20.634;2022-07-29T18:56:01;8;7;6
50956;PMS5003;55361;50.876;20.634;2022-07-29T19:00:21;8;7;6
50956;PMS5003;55361;50.876;20.634;2022-07-29T19:07:17;8;7;6
50956;PMS5003;55361;50.876;20.634;2022-07-29T19:21:15;7;7;5
50956;PMS5003;55361;50.876;20.634;2022-07-29T19:28:18;7;7;5
50956;PMS5003;55361;50.876;20.634;2022-07-29T19:35:02;7;7;5
50956;PMS5003;55361;50.876;20.634;2022-07-29T19:42:02;7;7;5
50956;PMS5003;55361;50.876;20.634;2022-07-29T19:49:02;5;4;2
50956;PMS5003;55361;50.876;20.634;2022-07-29T19:56:15;5;4;2
50956;PMS5003;55361;50.876;20.634;2022-07-29T20:00:01;5;4;2
50956;PMS5003;55361;50.876;20.634;2022-07-29T20:07:16;5;4;2
50956;PMS5003;55361;50.876;20.634;2022-07-29T20:21:02;4;4;4
50956;PMS5003;55361;50.876;20.634;2022-07-29T20:28:17;4;4;4
50956;PMS5003;55361;50.876;20.634;2022-07-29T20:35:22;4;4;4
50956;PMS5003;55361;50.876;20.634;2022-07-29T20:42:04;4;4;4
50956;PMS5003;55361;50.876;20.634;2022-07-29T20:49:05;4;3;2
50956;PMS5003;55361;50.876;20.634;2022-07-29T20:56:19;4;3;2
50956;PMS5003;55361;50.876;20.634;2022-07-29T21:00:00;4;3;2
50956;PMS5003;55361;50.876;20.634;2022-07-29T21:07:03;4;3;2
50956;PMS5003;55361;50.876;20.634;2022-07-29T21:21:18;5;5;4
50956;PMS5003;55361;50.876;20.634;2022-07-29T21:35:11;5;5;4
50956;PMS5003;55361;50.876;20.634;2022-07-29T21:42:18;5;5;4
50956;PMS5003;55361;50.876;20.634;2022-07-29T21:49:19;5;4;3
50956;PMS5003;55361;50.876;20.634;2022-07-29T21:56:18;5;4;3
50956;PMS5003;55361;50.876;20.634;2022-07-29T22:00:14;5;4;3
50956;PMS5003;55361;50.876;20.634;2022-07-29T22:07:14;5;4;3
50956;PMS5003;55361;50.876;20.634;2022-07-29T22:14:08;5;5;4
50956;PMS5003;55361;50.876;20.634;2022-07-29T22:21:16;5;5;4
50956;PMS5003;55361;50.876;20.634;2022-07-29T22:28:07;5;5;4
50956;PMS5003;55361;50.876;20.634;2022-07-29T22:35:20;5;5;3
50956;PMS5003;55361;50.876;20.634;2022-07-29T22:42:17;5;5;3
50956;PMS5003;55361;50.876;20.634;2022-07-29T22:49:18;5;5;3
50956;PMS5003;55361;50.876;20.634;2022-07-29T22:56:04;5;5;3
50956;PMS5003;55361;50.876;20.634;2022-07-29T23:07:17;5;5;4
50956;PMS5003;55361;50.876;20.634;2022-07-29T23:14:15;5;5;4
50956;PMS5003;55361;50.876;20.634;2022-07-29T23:21:07;5;5;4
50956;PMS5003;55361;50.876;20.634;2022-07-29T23:28:07;5;5;4
50956;PMS5003;55361;50.876;20.634;2022-07-29T23:35:20;5;4;3
50956;PMS5003;55361;50.876;20.634;2022-07-29T23:42:08;5;4;3
50956;PMS5003;55361;50.876;20.634;2022-07-29T23:49:19;5;4;3
50956;PMS5003;55361;50.876;20.634;2022-07-29T23:56:29;5;4;3
